Time;durP1;ratioP1;P1;durP2;ratioP2;P2;SDS_P1;SDS_P2;PMS_P1;PMS_P2;Temp;Humidity;BMP_temperature;BMP_pressure;BME280_temperature;BME280_humidity;BME280_pressure;Samples;Min_cycle;Max_cycle;Signal;HPM_P1;HPM_P2
2024/01/09 00:02:18;;;;;;;7.13;3.27;;;-3.80;76.10;;;;;;5024642;28;20048;-71
2024/01/09 00:04:43;;;;;;;8.03;3.17;;;-3.80;76.00;;;;;;5026608;28;20057;-70
2024/01/09 00:07:09;;;;;;;7.00;3.03;;;-3.80;76.00;;;;;;5024082;28;20056;-70
2024/01/09 00:09:35;;;;;;;6.33;3.40;;;-3.80;76.00;;;;;;5011469;28;20053;-70
2024/01/09 00:12:02;;;;;;;8.17;3.33;;;-3.90;76.10;;;;;;5010211;28;20048;-72
2024/01/09 00:14:28;;;;;;;5.67;3.03;;;-3.90;76.20;;;;;;5028006;28;20452;-71
2024/01/09 00:16:53;;;;;;;8.77;3.20;;;-3.90;76.20;;;;;;5026908;28;20049;-70
2024/01/09 00:19:19;;;;;;;7.40;3.37;;;-4.00;76.30;;;;;;5022288;28;20070;-72
2024/01/09 00:21:48;;;;;;;6.67;3.17;;;-4.00;76.30;;;;;;5032460;28;20048;-70
2024/01/09 00:24:13;;;;;;;7.87;3.03;;;-4.00;76.40;;;;;;5046971;28;20488;-70
2024/01/09 00:26:43;;;;;;;13.40;3.23;;;-4.00;76.40;;;;;;5023003;28;20048;-70
2024/01/09 00:29:09;;;;;;;6.50;3.60;;;-4.00;76.30;;;;;;5031402;28;20511;-71
2024/01/09 00:31:35;;;;;;;7.67;3.13;;;-4.00;76.50;;;;;;5021909;28;20409;-70
2024/01/09 00:34:01;;;;;;;7.67;2.97;;;-4.10;76.40;;;;;;5037391;28;20056;-70
2024/01/09 00:36:27;;;;;;;8.33;3.50;;;-4.10;76.40;;;;;;5034309;28;20136;-70
2024/01/09 00:38:52;;;;;;;5.87;3.10;;;-4.10;76.50;;;;;;5029333;28;20047;-71
2024/01/09 00:41:18;;;;;;;6.43;3.00;;;-4.10;76.50;;;;;;5046645;28;20051;-70
2024/01/09 00:43:44;;;;;;;7.53;2.67;;;-4.10;76.50;;;;;;5026528;28;20052;-70
2024/01/09 00:46:09;;;;;;;6.97;3.47;;;-4.20;76.60;;;;;;5021117;28;20424;-70
2024/01/09 00:48:35;;;;;;;8.80;3.40;;;-4.20;76.60;;;;;;5047035;28;20191;-70
2024/01/09 00:51:01;;;;;;;7.27;3.60;;;-4.20;76.60;;;;;;5048472;28;20476;-70
2024/01/09 00:53:26;;;;;;;8.33;2.90;;;-4.20;76.60;;;;;;5043166;28;20053;-72
2024/01/09 00:55:52;;;;;;;5.00;2.87;;;-4.20;76.80;;;;;;5044089;28;20060;-70
2024/01/09 00:58:18;;;;;;;9.27;2.93;;;-4.30;76.80;;;;;;5026629;28;20045;-71
2024/01/09 01:00:44;;;;;;;7.67;2.87;;;-4.30;76.70;;;;;;5005948;28;20049;-70
2024/01/09 01:03:09;;;;;;;8.77;3.60;;;-4.30;76.80;;;;;;5023800;28;20041;-71
2024/01/09 01:05:35;;;;;;;7.27;3.27;;;-4.30;76.80;;;;;;5046263;28;20078;-70
2024/01/09 01:08:01;;;;;;;6.83;3.07;;;-4.30;76.80;;;;;;5045283;28;20052;-70
2024/01/09 01:10:26;;;;;;;9.67;3.33;;;-4.40;76.80;;;;;;5045807;28;20048;-70
2024/01/09 01:12:52;;;;;;;6.30;3.37;;;-4.40;76.90;;;;;;5045076;28;20563;-71
2024/01/09 01:15:18;;;;;;;6.10;3.10;;;-4.40;76.90;;;;;;5043628;28;20060;-71
2024/01/09 01:17:44;;;;;;;9.93;3.50;;;-4.50;77.00;;;;;;5037663;28;20052;-72
2024/01/09 01:20:10;;;;;;;5.63;3.47;;;-4.50;77.10;;;;;;5027549;28;20332;-71
2024/01/09 01:22:36;;;;;;;6.10;3.10;;;-4.60;77.20;;;;;;5045358;28;20417;-71
2024/01/09 01:25:02;;;;;;;9.03;3.13;;;-4.60;77.20;;;;;;5044808;28;20052;-71
2024/01/09 01:27:28;;;;;;;7.07;3.17;;;-4.60;77.10;;;;;;5045213;28;20056;-71
2024/01/09 01:29:55;;;;;;;7.37;2.87;;;-4.60;77.10;;;;;;5053067;28;20740;-70
2024/01/09 01:32:20;;;;;;;7.00;2.97;;;-4.60;77.10;;;;;;5028630;28;20048;-71
2024/01/09 01:34:46;;;;;;;7.33;2.97;;;-4.60;77.20;;;;;;5030788;28;20046;-72
2024/01/09 01:37:13;;;;;;;8.93;3.27;;;-4.70;77.20;;;;;;5044743;28;20057;-71
2024/01/09 01:39:39;;;;;;;6.93;3.23;;;-4.80;77.20;;;;;;5027500;28;20057;-71
2024/01/09 01:42:04;;;;;;;7.30;3.20;;;-4.80;77.30;;;;;;5033603;28;20134;-72
2024/01/09 01:44:30;;;;;;;9.50;2.90;;;-4.80;77.30;;;;;;5045306;28;20126;-71
2024/01/09 01:46:56;;;;;;;8.43;3.07;;;-4.80;77.30;;;;;;5027968;28;20524;-71
2024/01/09 01:49:22;;;;;;;6.70;2.97;;;-4.90;77.30;;;;;;5038140;28;20061;-71
2024/01/09 01:51:51;;;;;;;7.03;3.10;;;-4.90;77.30;;;;;;5043971;28;20053;-72
2024/01/09 01:54:17;;;;;;;7.37;3.20;;;-4.90;77.30;;;;;;5026462;28;20433;-72
2024/01/09 01:56:45;;;;;;;6.60;3.00;;;-4.90;77.30;;;;;;5027076;28;20396;-70
2024/01/09 01:59:13;;;;;;;7.17;3.37;;;-4.90;77.30;;;;;;5029828;28;20388;-70
2024/01/09 02:01:39;;;;;;;9.03;3.20;;;-4.90;77.30;;;;;;5044635;28;20290;-72
2024/01/09 02:04:07;;;;;;;6.30;2.80;;;-5.00;77.30;;;;;;5040285;28;20283;-71
2024/01/09 02:06:33;;;;;;;9.10;3.43;;;-5.00;77.50;;;;;;5045094;28;20053;-71
2024/01/09 02:08:59;;;;;;;8.43;3.47;;;-5.10;77.50;;;;;;5043765;28;20451;-71
2024/01/09 02:11:25;;;;;;;8.27;3.10;;;-5.10;77.50;;;;;;5039758;28;20084;-70
2024/01/09 02:13:51;;;;;;;7.20;3.17;;;-5.20;77.60;;;;;;5029002;28;20049;-71
2024/01/09 02:16:17;;;;;;;7.60;3.57;;;-5.20;77.60;;;;;;5013047;28;20296;-71
2024/01/09 02:18:42;;;;;;;9.53;3.33;;;-5.20;77.60;;;;;;5037454;28;20061;-70
2024/01/09 02:21:08;;;;;;;9.20;2.80;;;-5.20;77.70;;;;;;5044358;28;20480;-72
2024/01/09 02:23:34;;;;;;;8.97;3.60;;;-5.20;77.80;;;;;;5045588;28;20083;-71
2024/01/09 02:26:00;;;;;;;8.50;3.43;;;-5.30;77.80;;;;;;5027879;28;20053;-70
2024/01/09 02:28:44;;;;;;;9.30;3.27;;;-5.40;77.90;;;;;;5001825;28;20053;-70
2024/01/09 02:31:10;;;;;;;10.23;3.30;;;-5.40;78.10;;;;;;5057599;28;20746;-70
2024/01/09 02:33:36;;;;;;;8.90;3.50;;;-5.40;78.00;;;;;;5023149;28;20333;-70
2024/01/09 02:36:02;;;;;;;7.30;3.80;;;-5.40;78.00;;;;;;5028543;28;20053;-73
2024/01/09 02:38:28;;;;;;;9.33;3.77;;;-5.50;78.10;;;;;;5015608;28;20422;-70
2024/01/09 02:40:54;;;;;;;8.53;3.20;;;-5.50;78.10;;;;;;5022711;28;20061;-70
2024/01/09 02:43:19;;;;;;;9.87;2.90;;;-5.60;78.10;;;;;;5043599;28;20049;-70
2024/01/09 02:45:45;;;;;;;8.17;3.20;;;-5.60;78.20;;;;;;5014869;28;20041;-70
2024/01/09 02:48:10;;;;;;;7.40;3.40;;;-5.60;78.10;;;;;;5049042;28;20052;-70
2024/01/09 02:50:36;;;;;;;7.97;3.27;;;-5.60;78.20;;;;;;5047484;28;20052;-71
2024/01/09 02:53:02;;;;;;;8.90;2.87;;;-5.70;78.30;;;;;;5047832;28;20052;-70
2024/01/09 02:55:27;;;;;;;8.03;3.27;;;-5.70;78.30;;;;;;5037816;28;20558;-70
2024/01/09 02:57:53;;;;;;;9.40;3.00;;;-5.70;78.40;;;;;;5043379;28;20053;-70
2024/01/09 03:00:19;;;;;;;6.90;3.03;;;-5.70;78.40;;;;;;5039618;28;20079;-70
2024/01/09 03:02:45;;;;;;;5.27;2.77;;;-5.70;78.40;;;;;;5047814;28;20113;-70
2024/01/09 03:05:11;;;;;;;8.30;3.33;;;-5.70;78.50;;;;;;5033102;28;20280;-71
2024/01/09 03:07:37;;;;;;;6.03;2.63;;;-5.70;78.50;;;;;;5038532;28;20053;-70
2024/01/09 03:10:03;;;;;;;8.00;3.13;;;-5.70;78.50;;;;;;5030153;28;20040;-71
2024/01/09 03:12:28;;;;;;;7.50;3.33;;;-5.70;78.50;;;;;;5030224;28;20519;-70
2024/01/09 03:14:55;;;;;;;6.53;3.00;;;-5.70;78.50;;;;;;5046964;28;20053;-70
2024/01/09 03:17:20;;;;;;;7.83;3.20;;;-5.80;78.40;;;;;;5029217;28;20033;-71
2024/01/09 03:19:46;;;;;;;6.63;3.00;;;-5.80;78.50;;;;;;5035839;28;20294;-70
2024/01/09 03:22:12;;;;;;;6.53;2.70;;;-5.90;78.50;;;;;;5013125;28;20057;-70
2024/01/09 03:24:37;;;;;;;6.27;3.10;;;-6.00;78.60;;;;;;5043654;28;20064;-71
2024/01/09 03:27:04;;;;;;;7.03;3.67;;;-6.00;78.60;;;;;;5032526;28;20578;-72
2024/01/09 03:29:29;;;;;;;8.90;3.37;;;-6.00;78.60;;;;;;5042221;28;20045;-70
2024/01/09 03:31:56;;;;;;;8.73;3.47;;;-6.00;78.60;;;;;;5032513;28;20391;-70
2024/01/09 03:34:22;;;;;;;7.40;3.40;;;-6.00;78.70;;;;;;5039611;28;20049;-70
2024/01/09 03:36:48;;;;;;;8.07;3.60;;;-6.00;78.70;;;;;;5035312;28;20293;-70
2024/01/09 03:39:16;;;;;;;8.37;3.50;;;-6.00;78.70;;;;;;5044842;28;20045;-70
2024/01/09 03:41:42;;;;;;;9.93;3.73;;;-6.00;78.70;;;;;;5035242;28;20056;-70
2024/01/09 03:44:09;;;;;;;7.03;3.33;;;-6.10;78.80;;;;;;5040172;28;20272;-71
2024/01/09 03:46:35;;;;;;;9.97;3.73;;;-6.10;78.90;;;;;;5034661;28;20323;-70
2024/01/09 03:49:01;;;;;;;7.77;3.50;;;-6.10;78.80;;;;;;5046919;28;20609;-71
2024/01/09 03:51:26;;;;;;;7.17;3.20;;;-6.10;78.80;;;;;;5012425;28;20053;-70
2024/01/09 03:53:52;;;;;;;7.80;3.73;;;-6.10;78.80;;;;;;5039863;28;20052;-70
2024/01/09 03:56:18;;;;;;;6.80;3.10;;;-6.10;78.90;;;;;;5035788;28;20056;-70
2024/01/09 03:58:44;;;;;;;10.77;3.47;;;-6.00;78.90;;;;;;5042806;28;20050;-71
2024/01/09 04:01:10;;;;;;;9.43;3.40;;;-6.10;78.80;;;;;;5028053;28;20500;-70
2024/01/09 04:03:36;;;;;;;6.70;3.37;;;-6.10;78.80;;;;;;5047671;28;20287;-71
2024/01/09 04:06:02;;;;;;;6.17;3.33;;;-6.10;78.90;;;;;;5037280;28;20297;-69
2024/01/09 04:08:28;;;;;;;9.90;3.73;;;-6.10;78.90;;;;;;5037873;28;20067;-70
2024/01/09 04:10:54;;;;;;;7.67;3.33;;;-6.10;78.90;;;;;;5045160;28;20829;-70
2024/01/09 04:13:20;;;;;;;8.33;3.10;;;-6.10;78.90;;;;;;5047461;28;20048;-70
2024/01/09 04:15:46;;;;;;;6.70;3.50;;;-6.10;78.90;;;;;;5045381;28;20052;-70
2024/01/09 04:18:12;;;;;;;7.47;3.33;;;-6.10;79.00;;;;;;5040770;28;20287;-70
2024/01/09 04:20:39;;;;;;;10.37;3.13;;;-6.00;79.00;;;;;;5034761;28;20042;-70
2024/01/09 04:23:05;;;;;;;8.37;3.27;;;-6.00;78.90;;;;;;5028071;28;20268;-71
2024/01/09 04:25:31;;;;;;;10.07;3.70;;;-6.00;79.00;;;;;;5030962;28;20290;-70
2024/01/09 04:27:57;;;;;;;7.47;3.60;;;-6.00;78.90;;;;;;5027000;28;20041;-70
2024/01/09 04:30:22;;;;;;;8.93;3.77;;;-6.10;78.90;;;;;;5037849;28;20047;-70
2024/01/09 04:32:48;;;;;;;9.50;4.00;;;-6.10;78.90;;;;;;5055084;28;20044;-71
2024/01/09 04:35:14;;;;;;;6.57;3.17;;;-6.10;78.90;;;;;;5027383;28;20045;-72
2024/01/09 04:37:40;;;;;;;6.97;3.63;;;-6.10;78.90;;;;;;5021515;28;20087;-71
2024/01/09 04:40:06;;;;;;;15.50;3.70;;;-6.20;78.80;;;;;;5036299;28;20045;-71
2024/01/09 04:42:32;;;;;;;7.40;3.60;;;-6.20;79.00;;;;;;5027166;28;20138;-71
2024/01/09 04:44:57;;;;;;;12.30;4.00;;;-6.20;79.00;;;;;;5038346;28;20317;-71
2024/01/09 04:47:23;;;;;;;8.43;4.13;;;-6.20;78.90;;;;;;5038121;28;20048;-71
2024/01/09 04:49:49;;;;;;;7.80;3.90;;;-6.20;79.00;;;;;;5035330;28;20060;-71
2024/01/09 04:52:14;;;;;;;8.77;3.80;;;-6.20;79.00;;;;;;5033536;28;20060;-71
2024/01/09 04:54:40;;;;;;;6.80;3.77;;;-6.20;79.00;;;;;;5045032;28;20057;-72
2024/01/09 04:57:06;;;;;;;7.03;3.63;;;-6.20;79.00;;;;;;5038886;28;20041;-70
2024/01/09 04:59:32;;;;;;;9.17;3.90;;;-6.20;79.00;;;;;;5040934;28;20518;-70
2024/01/09 05:02:01;;;;;;;9.17;4.17;;;-6.20;79.00;;;;;;5028574;28;20072;-70
2024/01/09 05:04:30;;;;;;;8.83;4.13;;;-6.20;79.00;;;;;;5030340;28;20048;-70
2024/01/09 05:06:56;;;;;;;8.20;4.37;;;-6.10;79.10;;;;;;5040284;28;20290;-70
2024/01/09 05:09:21;;;;;;;10.10;4.80;;;-6.10;79.10;;;;;;5012647;28;20284;-70
2024/01/09 05:11:47;;;;;;;8.60;4.13;;;-6.10;79.00;;;;;;5034579;28;20120;-70
2024/01/09 05:14:13;;;;;;;9.07;4.70;;;-6.10;79.00;;;;;;5040011;28;20128;-70
2024/01/09 05:16:38;;;;;;;7.80;4.13;;;-6.10;79.00;;;;;;5025343;28;20057;-71
2024/01/09 05:19:04;;;;;;;8.40;4.47;;;-6.10;79.00;;;;;;5034714;28;20053;-70
2024/01/09 05:21:32;;;;;;;7.70;4.03;;;-6.10;79.00;;;;;;5034218;28;20492;-70
2024/01/09 05:23:58;;;;;;;10.47;4.50;;;-6.00;78.90;;;;;;5039832;28;20045;-70
2024/01/09 05:26:24;;;;;;;10.70;4.43;;;-6.10;78.80;;;;;;5043154;28;20302;-70
2024/01/09 05:28:50;;;;;;;8.47;4.10;;;-6.10;78.80;;;;;;5019937;28;20060;-70
2024/01/09 05:31:15;;;;;;;8.63;4.27;;;-6.10;78.70;;;;;;5046763;28;20136;-70
2024/01/09 05:33:41;;;;;;;9.90;4.33;;;-6.10;78.80;;;;;;5028642;28;20049;-70
2024/01/09 05:36:07;;;;;;;9.30;5.03;;;-6.20;78.70;;;;;;5044764;28;20550;-69
2024/01/09 05:38:33;;;;;;;11.77;4.73;;;-6.20;78.70;;;;;;5040876;28;20053;-70
2024/01/09 05:40:59;;;;;;;9.90;4.60;;;-6.20;78.70;;;;;;5044373;28;20045;-70
2024/01/09 05:43:24;;;;;;;9.63;4.63;;;-6.20;78.70;;;;;;5052905;28;20511;-70
2024/01/09 05:45:50;;;;;;;10.60;4.23;;;-6.30;78.70;;;;;;5044953;28;20428;-72
2024/01/09 05:48:16;;;;;;;10.57;4.60;;;-6.30;78.80;;;;;;5046076;28;20052;-70
2024/01/09 05:50:41;;;;;;;8.03;4.47;;;-6.30;78.70;;;;;;5006545;28;20111;-70
2024/01/09 05:53:08;;;;;;;12.07;5.07;;;-6.30;78.70;;;;;;5024886;28;20041;-69
2024/01/09 05:55:33;;;;;;;10.43;4.83;;;-6.30;78.90;;;;;;5021265;28;20053;-69
2024/01/09 05:57:59;;;;;;;9.67;4.83;;;-6.30;78.80;;;;;;5027614;28;20300;-70
2024/01/09 06:00:25;;;;;;;9.73;4.87;;;-6.30;78.70;;;;;;5032232;28;20055;-72
2024/01/09 06:02:51;;;;;;;8.53;4.90;;;-6.30;78.80;;;;;;5008222;28;20053;-70
2024/01/09 06:05:17;;;;;;;8.37;4.43;;;-6.30;78.70;;;;;;5019152;28;20045;-70
2024/01/09 06:07:43;;;;;;;9.50;4.90;;;-6.30;78.70;;;;;;5020459;28;20295;-70
2024/01/09 06:10:09;;;;;;;11.23;5.13;;;-6.30;78.70;;;;;;5028327;28;20056;-70
2024/01/09 06:12:35;;;;;;;10.80;5.03;;;-6.40;78.70;;;;;;5028637;28;20053;-70
2024/01/09 06:15:00;;;;;;;10.90;5.10;;;-6.40;78.60;;;;;;5027698;28;20061;-70
2024/01/09 06:17:26;;;;;;;8.77;4.83;;;-6.40;78.60;;;;;;5027738;28;20084;-70
2024/01/09 06:19:52;;;;;;;7.73;4.40;;;-6.40;78.50;;;;;;5027979;28;20115;-71
2024/01/09 06:22:18;;;;;;;10.13;5.07;;;-6.50;78.50;;;;;;5029293;28;20049;-70
2024/01/09 06:24:44;;;;;;;9.60;4.63;;;-6.50;78.40;;;;;;5026599;28;20429;-71
2024/01/09 06:27:10;;;;;;;10.10;5.00;;;-6.50;78.50;;;;;;5027053;28;20057;-70
2024/01/09 06:29:36;;;;;;;9.47;5.27;;;-6.50;78.40;;;;;;5023405;28;20692;-70
2024/01/09 06:32:02;;;;;;;11.67;5.10;;;-6.50;78.40;;;;;;5012583;28;20046;-70
2024/01/09 06:34:28;;;;;;;11.00;4.97;;;-6.50;78.40;;;;;;5018576;28;20058;-70
2024/01/09 06:36:53;;;;;;;11.47;5.17;;;-6.50;78.40;;;;;;5021112;28;20360;-70
2024/01/09 06:39:19;;;;;;;9.50;5.13;;;-6.50;78.40;;;;;;5010472;28;20116;-70
2024/01/09 06:41:45;;;;;;;11.23;5.30;;;-6.50;78.30;;;;;;5012569;28;20077;-70
2024/01/09 06:44:11;;;;;;;11.00;5.37;;;-6.50;78.40;;;;;;5026738;28;20042;-70
2024/01/09 06:46:37;;;;;;;8.87;5.50;;;-6.50;78.30;;;;;;5027471;28;20045;-70
2024/01/09 06:49:03;;;;;;;12.87;5.07;;;-6.60;78.30;;;;;;5020295;28;20708;-71
2024/01/09 06:51:29;;;;;;;11.50;5.40;;;-6.60;78.40;;;;;;5034638;28;20060;-70
2024/01/09 06:53:55;;;;;;;8.40;4.63;;;-6.60;78.30;;;;;;5047946;28;20115;-70
2024/01/09 06:56:21;;;;;;;9.73;4.80;;;-6.60;78.30;;;;;;5033167;28;20352;-71
2024/01/09 06:58:47;;;;;;;10.50;5.30;;;-6.60;78.30;;;;;;5016401;28;20433;-71
2024/01/09 07:01:12;;;;;;;10.37;5.33;;;-6.60;78.30;;;;;;5035069;28;20073;-70
2024/01/09 07:03:38;;;;;;;14.50;6.03;;;-6.60;78.30;;;;;;5010720;28;20052;-70
2024/01/09 07:06:04;;;;;;;12.17;6.27;;;-6.60;78.30;;;;;;5025481;28;20559;-70
2024/01/09 07:08:30;;;;;;;11.30;5.83;;;-6.60;78.30;;;;;;5042429;28;20045;-70
2024/01/09 07:10:57;;;;;;;11.30;5.73;;;-6.60;78.30;;;;;;5031443;28;20296;-70
2024/01/09 07:13:23;;;;;;;11.50;5.50;;;-6.60;78.30;;;;;;5010860;28;20033;-70
2024/01/09 07:15:49;;;;;;;11.37;5.80;;;-6.60;78.30;;;;;;5042440;28;20599;-70
2024/01/09 07:18:15;;;;;;;9.97;5.37;;;-6.60;78.20;;;;;;5030169;28;20344;-70
2024/01/09 07:20:43;;;;;;;15.53;6.03;;;-6.60;78.30;;;;;;5044489;28;20322;-70
2024/01/09 07:23:08;;;;;;;12.13;6.03;;;-6.60;78.20;;;;;;5044842;28;20769;-70
2024/01/09 07:25:34;;;;;;;17.23;5.60;;;-6.60;78.20;;;;;;5033208;28;20318;-70
2024/01/09 07:28:00;;;;;;;12.90;5.80;;;-6.60;78.30;;;;;;5015686;28;20049;-70
2024/01/09 07:30:25;;;;;;;10.37;4.83;;;-6.70;78.30;;;;;;5028706;28;20053;-70
2024/01/09 07:32:51;;;;;;;14.27;6.30;;;-6.70;78.20;;;;;;5046774;28;20140;-70
2024/01/09 07:35:17;;;;;;;12.83;5.80;;;-6.80;78.20;;;;;;5046749;28;20091;-69
2024/01/09 07:37:42;;;;;;;9.80;5.20;;;-6.80;78.20;;;;;;5042192;28;20057;-70
2024/01/09 07:40:09;;;;;;;8.77;5.00;;;-6.80;78.20;;;;;;5045168;28;20041;-70
2024/01/09 07:42:35;;;;;;;13.27;5.90;;;-6.90;78.20;;;;;;5051394;28;20052;-70
2024/01/09 07:45:02;;;;;;;12.37;5.63;;;-6.90;78.30;;;;;;5062281;28;20280;-69
2024/01/09 07:47:28;;;;;;;16.13;5.80;;;-6.90;78.30;;;;;;5046847;28;20338;-70
2024/01/09 07:49:54;;;;;;;11.33;6.00;;;-7.00;78.30;;;;;;5027137;28;20866;-70
2024/01/09 07:52:20;;;;;;;11.07;5.73;;;-7.00;78.40;;;;;;5024960;28;20044;-70
2024/01/09 07:54:45;;;;;;;11.47;5.30;;;-7.10;78.40;;;;;;5018505;28;20115;-70
2024/01/09 07:57:11;;;;;;;13.27;5.50;;;-7.10;78.40;;;;;;5026147;28;20045;-71
2024/01/09 07:59:37;;;;;;;10.57;5.67;;;-7.10;78.50;;;;;;5032400;28;20102;-71
2024/01/09 08:02:05;;;;;;;11.90;5.17;;;-7.10;78.60;;;;;;5028310;28;20041;-71
2024/01/09 08:04:31;;;;;;;11.40;5.50;;;-7.10;78.60;;;;;;5017842;28;20051;-72
2024/01/09 08:06:57;;;;;;;12.53;5.17;;;-7.00;78.60;;;;;;5034108;28;21053;-70
2024/01/09 08:09:22;;;;;;;11.73;5.60;;;-6.90;78.60;;;;;;5041879;28;20037;-70
2024/01/09 08:11:48;;;;;;;10.70;4.67;;;-6.80;78.50;;;;;;5040375;28;20511;-70
2024/01/09 08:14:14;;;;;;;11.77;5.10;;;-6.80;78.30;;;;;;5037717;28;20454;-70
2024/01/09 08:16:40;;;;;;;10.93;4.80;;;-6.70;78.20;;;;;;5037611;28;20099;-70
2024/01/09 08:19:07;;;;;;;10.03;5.20;;;-6.70;78.10;;;;;;5019794;28;20265;-70
2024/01/09 08:21:35;;;;;;;8.43;4.93;;;-6.50;78.20;;;;;;5036180;28;20288;-70
2024/01/09 08:24:01;;;;;;;11.33;5.27;;;-6.40;78.00;;;;;;5018665;28;20283;-69
2024/01/09 08:26:27;;;;;;;9.50;5.17;;;-6.40;77.90;;;;;;5016538;28;20284;-69
2024/01/09 08:28:52;;;;;;;11.50;5.07;;;-6.30;78.00;;;;;;5025968;28;20290;-70
2024/01/09 08:31:18;;;;;;;10.03;5.20;;;-6.00;78.00;;;;;;5052864;28;20041;-70
2024/01/09 08:33:44;;;;;;;11.40;5.10;;;-5.70;77.60;;;;;;5043308;28;20044;-70
2024/01/09 08:36:10;;;;;;;12.70;4.70;;;-5.70;77.50;;;;;;5027808;28;20056;-70
2024/01/09 08:38:36;;;;;;;9.83;5.27;;;-5.60;77.50;;;;;;5044987;28;20052;-69
2024/01/09 08:41:02;;;;;;;11.77;5.43;;;-5.40;77.50;;;;;;5027383;28;20294;-70
2024/01/09 08:43:28;;;;;;;10.77;5.60;;;-5.50;77.40;;;;;;5060911;28;20053;-70
2024/01/09 08:45:54;;;;;;;11.87;5.37;;;-5.60;77.50;;;;;;5055552;28;20690;-69
2024/01/09 08:48:20;;;;;;;8.97;4.90;;;-5.60;77.50;;;;;;5041342;28;20326;-70
2024/01/09 08:50:46;;;;;;;9.23;4.90;;;-5.60;77.30;;;;;;5025154;28;20077;-70
2024/01/09 08:53:12;;;;;;;8.27;4.43;;;-5.70;77.30;;;;;;5028744;28;20044;-70
2024/01/09 08:55:37;;;;;;;10.20;5.10;;;-5.70;77.50;;;;;;5029924;28;20053;-69
2024/01/09 08:58:03;;;;;;;11.13;4.87;;;-5.40;77.80;;;;;;5015558;28;20045;-72
2024/01/09 09:00:29;;;;;;;9.23;4.50;;;-4.90;77.80;;;;;;5033039;28;20088;-71
2024/01/09 09:02:55;;;;;;;11.23;5.10;;;-4.60;77.60;;;;;;5026593;28;20057;-71
2024/01/09 09:05:20;;;;;;;12.97;4.80;;;-4.30;77.10;;;;;;5045462;28;20493;-71
2024/01/09 09:07:46;;;;;;;11.17;5.20;;;-4.30;76.50;;;;;;5043594;28;20044;-70
2024/01/09 09:10:12;;;;;;;9.93;5.37;;;-4.30;75.90;;;;;;5041056;28;20137;-71
2024/01/09 09:12:38;;;;;;;9.50;5.07;;;-4.50;75.90;;;;;;5014803;28;20037;-70
2024/01/09 09:15:03;;;;;;;12.13;5.33;;;-4.60;75.80;;;;;;5044649;28;20132;-72
2024/01/09 09:17:30;;;;;;;10.00;4.97;;;-4.80;76.00;;;;;;5041419;28;20524;-71
2024/01/09 09:19:57;;;;;;;8.13;4.87;;;-4.90;76.20;;;;;;5042709;28;20084;-71
2024/01/09 09:22:25;;;;;;;10.70;5.60;;;-5.00;76.20;;;;;;5015112;28;20280;-72
2024/01/09 09:24:52;;;;;;;9.37;4.60;;;-5.10;76.40;;;;;;5039232;28;20063;-70
2024/01/09 09:27:18;;;;;;;11.00;5.17;;;-5.10;76.70;;;;;;5008285;28;20294;-71
2024/01/09 09:29:44;;;;;;;12.60;5.63;;;-5.10;76.80;;;;;;5019219;28;20359;-72
2024/01/09 09:32:09;;;;;;;15.17;5.90;;;-5.20;77.00;;;;;;5027075;28;20444;-70
2024/01/09 09:34:35;;;;;;;11.00;5.37;;;-5.20;76.80;;;;;;5041847;28;20045;-70
2024/01/09 09:37:01;;;;;;;11.50;4.77;;;-5.20;77.10;;;;;;5036619;28;20484;-70
2024/01/09 09:39:26;;;;;;;14.53;6.30;;;-5.10;77.20;;;;;;5028577;28;20060;-70
2024/01/09 09:41:59;;;;;;;11.57;5.37;;;-5.10;77.20;;;;;;5031789;28;20079;-71
2024/01/09 09:44:26;;;;;;;12.50;6.57;;;-5.00;77.50;;;;;;5036486;28;20119;-70
2024/01/09 09:46:53;;;;;;;13.07;6.90;;;-4.90;77.50;;;;;;5012117;28;20280;-70
2024/01/09 09:49:22;;;;;;;11.47;6.80;;;-4.70;77.60;;;;;;5036136;28;20860;-71
2024/01/09 09:51:49;;;;;;;13.63;7.50;;;-4.50;77.00;;;;;;5026484;28;20771;-71
2024/01/09 09:54:15;;;;;;;18.87;9.20;;;-4.00;76.80;;;;;;5025930;28;20562;-71
2024/01/09 09:56:41;;;;;;;17.00;8.93;;;-3.60;75.60;;;;;;5025767;28;20535;-71
2024/01/09 09:59:10;;;;;;;10.97;6.00;;;-3.20;75.00;;;;;;5026549;28;20041;-71
2024/01/09 10:01:37;;;;;;;11.63;6.93;;;-3.10;73.70;;;;;;5033117;28;20076;-71
2024/01/09 10:04:24;;;;;;;11.67;6.97;;;-3.20;73.70;;;;;;5033958;28;20443;-73
2024/01/09 10:06:54;;;;;;;11.27;6.80;;;-3.20;74.50;;;;;;5012571;28;20056;-70
2024/01/09 10:09:20;;;;;;;10.47;5.90;;;-3.20;74.20;;;;;;5026447;28;20095;-71
2024/01/09 10:11:50;;;;;;;12.27;5.97;;;-3.10;73.30;;;;;;5029318;28;20050;-71
2024/01/09 10:14:16;;;;;;;12.13;5.80;;;-3.00;73.50;;;;;;5042458;28;20098;-74
2024/01/09 10:16:51;;;;;;;9.20;4.47;;;-2.90;73.00;;;;;;5042426;28;20045;-71
2024/01/09 10:19:17;;;;;;;9.83;4.27;;;-2.70;73.00;;;;;;5034424;28;20052;-71
2024/01/09 10:21:43;;;;;;;11.63;5.13;;;-2.70;71.00;;;;;;5023280;28;20052;-72
2024/01/09 10:24:09;;;;;;;6.60;4.20;;;-2.70;71.20;;;;;;5025430;28;20053;-71
2024/01/09 10:26:35;;;;;;;10.03;4.73;;;-2.40;71.00;;;;;;5026313;28;20100;-71
2024/01/09 10:29:01;;;;;;;8.33;4.93;;;-1.90;71.30;;;;;;5044851;28;20057;-71
2024/01/09 10:31:29;;;;;;;7.57;4.20;;;-1.30;70.30;;;;;;5054437;28;20049;-72
2024/01/09 10:33:56;;;;;;;9.83;4.77;;;-0.90;69.30;;;;;;5039426;28;20052;-72
2024/01/09 10:36:22;;;;;;;10.60;4.53;;;-0.70;68.90;;;;;;5009224;28;20038;-71
2024/01/09 10:38:48;;;;;;;9.00;5.00;;;-0.70;68.90;;;;;;5045636;28;20106;-71
2024/01/09 10:41:18;;;;;;;9.67;4.40;;;-0.50;69.30;;;;;;5042688;28;20053;-72
2024/01/09 10:43:44;;;;;;;6.97;4.53;;;0.00;70.20;;;;;;5030404;28;20056;-72
2024/01/09 10:46:10;;;;;;;7.53;4.70;;;0.20;69.30;;;;;;5043369;28;20049;-71
2024/01/09 10:48:38;;;;;;;9.87;4.97;;;0.20;67.80;;;;;;5025311;28;20124;-72
2024/01/09 10:51:05;;;;;;;7.67;4.30;;;0.00;67.30;;;;;;5024299;28;20069;-72
2024/01/09 10:53:33;;;;;;;5.80;4.20;;;-0.20;68.60;;;;;;5028014;28;20088;-72
2024/01/09 10:56:02;;;;;;;8.47;4.60;;;-0.20;68.30;;;;;;5034454;28;20053;-72
2024/01/09 10:58:27;;;;;;;7.50;4.73;;;-0.10;69.70;;;;;;5028525;28;20046;-72
2024/01/09 11:00:53;;;;;;;6.90;4.70;;;-0.10;68.20;;;;;;5046370;28;20156;-72
2024/01/09 11:03:19;;;;;;;8.63;4.53;;;-0.20;69.00;;;;;;5048463;28;20049;-72
2024/01/09 11:05:49;;;;;;;9.07;4.80;;;0.00;69.00;;;;;;5028677;28;20054;-72
2024/01/09 11:08:17;;;;;;;11.43;4.30;;;0.80;68.80;;;;;;5041918;28;20052;-73
2024/01/09 11:10:44;;;;;;;6.87;4.07;;;1.70;67.20;;;;;;5013577;28;20098;-72
2024/01/09 11:13:12;;;;;;;8.77;4.13;;;2.10;65.80;;;;;;5038418;28;20053;-72
2024/01/09 11:15:44;;;;;;;6.60;3.67;;;2.70;65.80;;;;;;5047042;28;20052;-72
2024/01/09 11:18:14;;;;;;;6.93;3.87;;;2.90;65.80;;;;;;5047414;28;20059;-73
2024/01/09 11:20:40;;;;;;;6.33;3.70;;;2.50;66.10;;;;;;5029605;28;20053;-72
2024/01/09 11:23:06;;;;;;;5.63;3.70;;;2.70;65.40;;;;;;5040146;28;20064;-73
2024/01/09 11:25:33;;;;;;;6.43;4.07;;;2.90;67.80;;;;;;5047462;28;20064;-73
2024/01/09 11:28:00;;;;;;;6.00;3.60;;;3.30;66.60;;;;;;5046876;28;20072;-73
2024/01/09 11:30:28;;;;;;;5.30;3.57;;;4.20;67.50;;;;;;5060215;28;20044;-73
2024/01/09 11:32:56;;;;;;;5.87;3.33;;;4.90;66.00;;;;;;5048924;28;20056;-73
2024/01/09 11:35:25;;;;;;;7.47;3.70;;;5.10;64.60;;;;;;5032937;28;20045;-72
2024/01/09 11:37:51;;;;;;;6.80;3.90;;;4.90;63.90;;;;;;5019825;28;20044;-72
2024/01/09 11:40:19;;;;;;;10.13;3.93;;;4.90;64.10;;;;;;5041629;28;20053;-73
2024/01/09 11:42:47;;;;;;;5.47;3.90;;;5.00;64.30;;;;;;5047301;28;20053;-72
2024/01/09 11:45:20;;;;;;;5.80;3.47;;;5.30;64.20;;;;;;5029316;28;20075;-72
2024/01/09 11:47:45;;;;;;;5.13;3.70;;;5.30;63.00;;;;;;5047147;28;20088;-72
2024/01/09 11:50:12;;;;;;;6.10;3.90;;;5.00;62.20;;;;;;5034480;28;20109;-72
2024/01/09 11:52:40;;;;;;;7.17;4.33;;;4.90;62.30;;;;;;5016769;28;20396;-72
2024/01/09 11:55:10;;;;;;;6.27;3.53;;;4.70;62.60;;;;;;5032211;28;20140;-73
2024/01/09 11:57:38;;;;;;;4.25;2.55;;;4.30;62.90;;;;;;5047525;28;20128;-72
2024/01/09 12:00:05;;;;;;;7.40;3.90;;;3.70;62.00;;;;;;5046199;28;20048;-73
2024/01/09 12:02:33;;;;;;;7.07;3.80;;;2.90;63.20;;;;;;5031890;28;20049;-73
2024/01/09 12:05:00;;;;;;;5.73;3.97;;;2.40;63.30;;;;;;5018449;28;20053;-72
2024/01/09 12:07:27;;;;;;;6.03;4.10;;;1.70;63.70;;;;;;5041627;28;20053;-71
2024/01/09 12:09:53;;;;;;;8.80;4.30;;;0.80;63.90;;;;;;5028754;28;20041;-73
2024/01/09 12:12:23;;;;;;;7.07;4.60;;;0.20;64.00;;;;;;5011703;28;20095;-71
2024/01/09 12:15:00;;;;;;;7.22;4.00;;;-0.10;66.00;;;;;;5027609;28;20054;-72
2024/01/09 12:17:33;;;;;;;7.37;4.47;;;-0.20;66.20;;;;;;5039106;28;20091;-71
2024/01/09 12:20:01;;;;;;;6.03;3.87;;;0.00;65.60;;;;;;5046159;28;20053;-72
2024/01/09 12:22:27;;;;;;;9.03;4.87;;;0.20;65.30;;;;;;5046606;28;20059;-71
2024/01/09 12:24:54;;;;;;;8.27;3.87;;;0.20;65.20;;;;;;5047035;28;20083;-72
2024/01/09 12:27:23;;;;;;;6.70;3.83;;;0.00;64.80;;;;;;5025649;28;20067;-72
2024/01/09 12:29:50;;;;;;;6.97;3.80;;;-0.10;65.50;;;;;;5050581;28;20052;-71
2024/01/09 12:32:16;;;;;;;6.60;4.03;;;-0.10;64.90;;;;;;5055462;28;20041;-71
2024/01/09 12:34:42;;;;;;;6.70;4.53;;;-0.20;65.10;;;;;;5012750;28;20045;-72
2024/01/09 12:37:08;;;;;;;8.13;3.70;;;-0.20;65.50;;;;;;5027474;28;20053;-72
2024/01/09 12:39:39;;;;;;;7.03;3.80;;;-0.20;64.90;;;;;;5011740;28;20268;-72
2024/01/09 12:42:16;;;;;;;5.75;2.95;;;0.10;65.70;;;;;;5042887;28;20052;-73